Time;durP1;ratioP1;P1;durP2;ratioP2;P2;SDS_P1;SDS_P2;PMS_P1;PMS_P2;Temp;Humidity;BMP_temperature;BMP_pressure;BME280_temperature;BME280_humidity;BME280_pressure;Samples;Min_cycle;Max_cycle;Signal;HPM_P1;HPM_P2
2020/12/24 00:01:15;;;;;;;;;;;;;;;18.59;70.76;101383.38;5009470;28;1213;-73
2020/12/24 00:03:45;;;;;;;;;;;;;;;18.58;70.77;101376.38;5002264;28;1564;-74
2020/12/24 00:06:11;;;;;;;;;;;;;;;18.58;70.52;101380.78;5008968;28;1576;-73
2020/12/24 00:08:37;;;;;;;;;;;;;;;18.56;70.83;101378.25;4991592;28;1041;-73
2020/12/24 00:11:03;;;;;;;;;;;;;;;18.57;70.89;101374.69;5009558;28;806;-74
2020/12/24 00:13:29;;;;;;;;;;;;;;;18.60;70.68;101374.53;5009293;28;1197;-72
2020/12/24 00:15:56;;;;;;;;;;;;;;;18.58;70.50;101371.09;5009007;28;1910;-72
2020/12/24 00:18:25;;;;;;;;;;;;;;;18.56;71.10;101380.88;5009115;28;1347;-72
2020/12/24 00:20:52;;;;;;;;;;;;;;;18.53;70.68;101371.31;4991427;28;1185;-72
2020/12/24 00:23:19;;;;;;;;;;;;;;;18.54;70.72;101366.91;4990954;28;1343;-72
2020/12/24 00:25:45;;;;;;;;;;;;;;;18.50;70.73;101367.97;4991592;28;978;-73
2020/12/24 00:28:11;;;;;;;;;;;;;;;18.52;70.78;101366.09;5008673;28;1304;-72
2020/12/24 00:30:41;;;;;;;;;;;;;;;18.50;70.66;101367.97;4991068;28;1179;-72
2020/12/24 00:33:08;;;;;;;;;;;;;;;18.50;70.81;101362.69;5009103;28;1305;-73
2020/12/24 00:35:35;;;;;;;;;;;;;;;18.52;70.87;101366.09;4991543;28;2001;-73
2020/12/24 00:38:01;;;;;;;;;;;;;;;18.50;70.62;101366.19;5008075;28;1328;-73
2020/12/24 00:40:28;;;;;;;;;;;;;;;18.47;70.90;101368.94;4990765;28;1284;-72
2020/12/24 00:42:56;;;;;;;;;;;;;;;18.51;70.88;101369.69;4975807;28;1249;-72
2020/12/24 00:45:23;;;;;;;;;;;;;;;18.49;71.26;101360.97;4974319;28;1304;-71
2020/12/24 00:47:50;;;;;;;;;;;;;;;18.47;71.08;101362.78;4974869;28;1261;-71
2020/12/24 00:50:17;;;;;;;;;;;;;;;18.46;70.82;101369.00;5009168;28;1125;-72
2020/12/24 00:52:43;;;;;;;;;;;;;;;18.49;70.73;101371.53;4991009;28;1327;-72
2020/12/24 00:55:09;;;;;;;;;;;;;;;18.46;71.00;101364.56;5008961;28;1919;-73
2020/12/24 00:57:35;;;;;;;;;;;;;;;18.47;70.78;101370.72;5008900;28;1335;-71
2020/12/24 01:00:03;;;;;;;;;;;;;;;18.47;70.58;101374.22;5012815;28;1043;-72
2020/12/24 01:02:30;;;;;;;;;;;;;;;18.45;70.44;101375.22;4978979;28;1249;-72
2020/12/24 01:04:56;;;;;;;;;;;;;;;18.42;70.51;101372.72;5012510;28;1147;-72
2020/12/24 01:07:22;;;;;;;;;;;;;;;18.42;70.68;101375.34;4994681;28;1479;-72
2020/12/24 01:09:48;;;;;;;;;;;;;;;18.42;70.51;101372.72;5012761;28;900;-73
2020/12/24 01:12:15;;;;;;;;;;;;;;;18.45;70.60;101375.22;4994622;28;1237;-72
2020/12/24 01:14:41;;;;;;;;;;;;;;;18.43;70.68;101371.78;4978700;28;1973;-72
2020/12/24 01:17:07;;;;;;;;;;;;;;;18.44;70.51;101373.50;5012443;28;1285;-72
2020/12/24 01:19:33;;;;;;;;;;;;;;;18.42;70.69;101372.72;5012654;28;1118;-72
2020/12/24 01:21:59;;;;;;;;;;;;;;;18.45;70.24;101380.50;5012166;28;1241;-72
2020/12/24 01:24:25;;;;;;;;;;;;;;;18.41;70.82;101378.91;4994359;28;1239;-71
2020/12/24 01:26:52;;;;;;;;;;;;;;;18.43;70.53;101382.31;4994567;28;1432;-72
2020/12/24 01:29:18;;;;;;;;;;;;;;;18.44;70.50;101373.50;5012626;28;1079;-74
2020/12/24 01:31:48;;;;;;;;;;;;;;;18.42;70.64;101391.19;4994503;28;1153;-72
2020/12/24 01:34:14;;;;;;;;;;;;;;;18.46;70.45;101387.47;4994328;28;1978;-71
2020/12/24 01:36:41;;;;;;;;;;;;;;;18.41;70.27;101397.38;5011862;28;1224;-71
2020/12/24 01:39:08;;;;;;;;;;;;;;;18.34;70.74;101398.56;5012036;28;1087;-72
2020/12/24 01:41:35;;;;;;;;;;;;;;;18.34;70.94;101399.44;5011710;28;1225;-71
2020/12/24 01:44:02;;;;;;;;;;;;;;;18.36;70.55;101396.72;5011965;28;1053;-72
2020/12/24 01:46:28;;;;;;;;;;;;;;;18.42;70.19;101399.94;5011714;28;1308;-71
2020/12/24 01:48:58;;;;;;;;;;;;;;;18.36;70.53;101402.00;5011782;28;1106;-71
2020/12/24 01:51:29;;;;;;;;;;;;;;;18.34;70.65;101402.06;5011537;28;1244;-72
2020/12/24 01:53:56;;;;;;;;;;;;;;;18.35;70.48;101397.66;4977673;28;1300;-71
2020/12/24 01:56:23;;;;;;;;;;;;;;;18.26;70.71;101400.69;5011549;28;1910;-72
2020/12/24 01:58:59;;;;;;;;;;;;;;;18.27;70.53;101399.78;4993162;28;1317;-72
2020/12/24 02:01:25;;;;;;;;;;;;;;;18.29;70.81;101397.94;4993895;28;1288;-72
2020/12/24 02:03:52;;;;;;;;;;;;;;;18.33;70.68;101402.16;5011460;28;1002;-72
2020/12/24 02:06:18;;;;;;;;;;;;;;;18.29;70.57;101403.19;4993878;28;1254;-73
2020/12/24 02:08:56;;;;;;;;;;;;;;;18.31;70.55;101393.44;5011276;28;1084;-73
2020/12/24 02:11:23;;;;;;;;;;;;;;;18.30;70.54;101397.00;5011437;28;1237;-73
2020/12/24 02:13:49;;;;;;;;;;;;;;;18.27;70.62;101397.16;4993572;28;1301;-74
2020/12/24 02:16:15;;;;;;;;;;;;;;;18.27;70.81;101395.34;5011146;28;1910;-73
2020/12/24 02:18:41;;;;;;;;;;;;;;;18.27;70.67;101402.44;5011300;28;1139;-73
2020/12/24 02:21:07;;;;;;;;;;;;;;;18.26;70.97;101396.28;4993382;28;1197;-74
2020/12/24 02:23:34;;;;;;;;;;;;;;;18.26;70.71;101395.44;5010869;28;1033;-74
2020/12/24 02:26:00;;;;;;;;;;;;;;;18.27;70.73;101386.59;4993911;28;725;-74
2020/12/24 02:28:26;;;;;;;;;;;;;;;18.32;70.69;101385.47;4993271;28;1403;-74
2020/12/24 02:30:52;;;;;;;;;;;;;;;18.28;70.68;101383.88;4993416;28;1305;-74
2020/12/24 02:33:20;;;;;;;;;;;;;;;18.24;70.91;101381.47;5010671;28;1323;-72
2020/12/24 02:35:46;;;;;;;;;;;;;;;18.22;70.95;101385.94;4993173;28;1907;-74
2020/12/24 02:38:12;;;;;;;;;;;;;;;18.23;70.71;101375.31;5010629;28;1229;-74
2020/12/24 02:40:38;;;;;;;;;;;;;;;18.23;70.75;101372.69;4993595;28;1202;-74
2020/12/24 02:43:05;;;;;;;;;;;;;;;18.22;70.99;101385.94;5010720;28;1205;-73
2020/12/24 02:45:31;;;;;;;;;;;;;;;18.24;71.16;101381.47;4993218;28;1071;-72
2020/12/24 02:47:57;;;;;;;;;;;;;;;18.25;70.86;101383.16;5010706;28;1181;-72
2020/12/24 02:50:23;;;;;;;;;;;;;;;18.22;70.72;101383.28;5010610;28;1052;-72
2020/12/24 02:52:49;;;;;;;;;;;;;;;18.23;70.90;101385.88;5010460;28;1209;-72
2020/12/24 02:55:16;;;;;;;;;;;;;;;18.19;70.97;101378.16;4992181;28;1914;-73
2020/12/24 02:57:43;;;;;;;;;;;;;;;18.20;71.21;101390.44;5010352;28;1229;-72
2020/12/24 03:00:12;;;;;;;;;;;;;;;18.22;71.00;101385.94;5010693;28;1142;-72
2020/12/24 03:02:38;;;;;;;;;;;;;;;18.23;70.98;101385.00;5010488;28;1217;-72
2020/12/24 03:05:05;;;;;;;;;;;;;;;18.19;70.87;101376.38;4992886;28;1283;-72
2020/12/24 03:07:33;;;;;;;;;;;;;;;18.23;70.87;101385.00;4993024;28;1229;-73
2020/12/24 03:10:04;;;;;;;;;;;;;;;18.20;70.88;101377.25;4992993;28;1210;-74
2020/12/24 03:12:30;;;;;;;;;;;;;;;18.18;70.96;101377.28;5010240;28;1233;-73
2020/12/24 03:14:56;;;;;;;;;;;;;;;18.15;70.99;101381.88;5010151;28;1902;-73
2020/12/24 03:17:23;;;;;;;;;;;;;;;18.18;71.08;101376.47;4992488;28;1367;-73
2020/12/24 03:19:49;;;;;;;;;;;;;;;18.15;71.02;101379.22;4992455;28;1134;-74
2020/12/24 03:22:15;;;;;;;;;;;;;;;18.10;71.22;101381.19;4991705;28;1321;-73
2020/12/24 03:24:41;;;;;;;;;;;;;;;18.17;70.96;101374.75;5010194;28;1130;-72
2020/12/24 03:27:16;;;;;;;;;;;;;;;18.15;71.25;101376.59;4992374;28;1308;-72
2020/12/24 03:29:45;;;;;;;;;;;;;;;18.15;71.08;101377.44;4992387;28;1029;-72
2020/12/24 03:32:11;;;;;;;;;;;;;;;18.13;71.15;101383.69;4992369;28;1217;-72
2020/12/24 03:34:38;;;;;;;;;;;;;;;18.18;70.94;101392.28;4992178;28;1898;-72
2020/12/24 03:37:04;;;;;;;;;;;;;;;18.12;70.94;101384.66;5009962;28;1209;-72
2020/12/24 03:39:31;;;;;;;;;;;;;;;18.13;71.11;101378.44;4991873;28;1471;-73
2020/12/24 03:41:59;;;;;;;;;;;;;;;18.15;71.22;101376.59;4991888;28;1378;-72
2020/12/24 03:44:25;;;;;;;;;;;;;;;18.13;71.37;101378.44;5010033;28;938;-73
2020/12/24 03:46:51;;;;;;;;;;;;;;;18.13;71.14;101373.16;5009444;28;1315;-73
2020/12/24 03:49:17;;;;;;;;;;;;;;;18.12;71.20;101371.47;4992052;28;1158;-73
2020/12/24 03:51:44;;;;;;;;;;;;;;;18.12;71.42;101372.28;4990552;28;1413;-73
2020/12/24 03:54:10;;;;;;;;;;;;;;;18.11;71.39;101375.00;4991966;28;1128;-72
2020/12/24 03:56:36;;;;;;;;;;;;;;;18.12;71.35;101382.00;5009426;28;1902;-73
2020/12/24 03:59:02;;;;;;;;;;;;;;;18.16;71.06;101389.69;4991636;28;1054;-73
2020/12/24 04:01:29;;;;;;;;;;;;;;;18.18;71.21;101387.00;4992055;28;1339;-72
2020/12/24 04:03:55;;;;;;;;;;;;;;;18.14;71.28;101388.06;4991948;28;1186;-73
2020/12/24 04:06:21;;;;;;;;;;;;;;;18.13;71.10;101383.69;5009523;28;1320;-72
2020/12/24 04:08:48;;;;;;;;;;;;;;;18.11;71.31;101389.06;5009457;28;1096;-73
2020/12/24 04:11:18;;;;;;;;;;;;;;;18.10;71.23;101382.06;4975653;28;1248;-72
2020/12/24 04:13:45;;;;;;;;;;;;;;;18.07;71.30;101389.25;4991739;28;1151;-72
2020/12/24 04:16:11;;;;;;;;;;;;;;;18.09;71.28;101392.69;4991395;28;1915;-71
2020/12/24 04:18:38;;;;;;;;;;;;;;;18.07;71.37;101395.38;4991578;28;927;-72
2020/12/24 04:21:04;;;;;;;;;;;;;;;18.14;70.96;101403.88;4991383;28;1225;-72
2020/12/24 04:23:30;;;;;;;;;;;;;;;18.13;71.22;101404.78;5009261;28;1013;-71
2020/12/24 04:25:56;;;;;;;;;;;;;;;18.13;71.16;101399.53;5009057;28;1008;-71
2020/12/24 04:28:25;;;;;;;;;;;;;;;18.08;71.26;101404.16;4975538;28;1228;-70
2020/12/24 04:30:51;;;;;;;;;;;;;;;18.10;71.36;101397.03;5008860;28;1051;-71
2020/12/24 04:33:17;;;;;;;;;;;;;;;18.11;71.42;101409.28;5008922;28;1236;-71
2020/12/24 04:35:44;;;;;;;;;;;;;;;18.12;71.29;101403.94;4975329;28;1907;-72
2020/12/24 04:38:10;;;;;;;;;;;;;;;18.08;71.10;101412.06;4991349;28;1280;-72
2020/12/24 04:40:38;;;;;;;;;;;;;;;18.10;71.18;101415.47;4991636;28;975;-72
2020/12/24 04:43:05;;;;;;;;;;;;;;;18.08;71.38;101412.91;5008729;28;1356;-73
2020/12/24 04:45:32;;;;;;;;;;;;;;;18.08;71.11;101412.06;5008337;28;1585;-73
2020/12/24 04:47:58;;;;;;;;;;;;;;;18.05;71.23;101409.56;4989822;28;1323;-73
2020/12/24 04:50:26;;;;;;;;;;;;;;;18.04;71.50;101416.59;5009176;28;911;-72
2020/12/24 04:52:56;;;;;;;;;;;;;;;18.07;71.39;101415.59;5008707;28;1213;-72
2020/12/24 04:55:22;;;;;;;;;;;;;;;18.07;71.27;101418.25;5008888;28;1989;-72
2020/12/24 04:57:49;;;;;;;;;;;;;;;18.10;71.34;101420.75;5008680;28;1431;-71
2020/12/24 05:00:16;;;;;;;;;;;;;;;18.07;71.21;101420.88;4990947;28;1137;-71
2020/12/24 05:03:00;;;;;;;;;;;;;;;18.11;71.11;101425.09;5008742;28;1280;-71
2020/12/24 05:05:27;;;;;;;;;;;;;;;18.06;71.47;101425.28;5009114;28;943;-72
2020/12/24 05:08:01;;;;;;;;;;;;;;;18.05;71.50;101430.66;5008752;28;1459;-72
2020/12/24 05:10:31;;;;;;;;;;;;;;;18.09;71.48;101433.06;5009070;28;983;-72
2020/12/24 05:12:58;;;;;;;;;;;;;;;18.07;71.58;101432.28;5009155;28;1239;-71
2020/12/24 05:15:30;;;;;;;;;;;;;;;18.03;71.67;101435.97;5009053;28;1977;-72
2020/12/24 05:18:12;;;;;;;;;;;;;;;18.06;71.38;101437.59;5008558;28;1257;-73
2020/12/24 05:20:39;;;;;;;;;;;;;;;18.07;71.42;101442.84;5009171;28;1169;-72
2020/12/24 05:23:12;;;;;;;;;;;;;;;18.10;71.55;101441.84;4990430;28;1379;-70
2020/12/24 05:25:38;;;;;;;;;;;;;;;18.06;71.54;101442.88;4990889;28;918;-72
2020/12/24 05:28:07;;;;;;;;;;;;;;;18.07;71.53;101448.09;4975407;28;1343;-71
2020/12/24 05:30:35;;;;;;;;;;;;;;;18.05;71.56;101441.19;5009037;28;1066;-70
2020/12/24 05:33:01;;;;;;;;;;;;;;;18.07;71.50;101437.56;5008575;28;1221;-71
2020/12/24 05:35:28;;;;;;;;;;;;;;;18.04;71.59;101442.97;5008665;28;1910;-72
2020/12/24 05:37:55;;;;;;;;;;;;;;;18.02;71.91;101443.00;4990509;28;1343;-71
2020/12/24 05:40:25;;;;;;;;;;;;;;;18.01;71.46;101435.19;5008964;28;1091;-72
2020/12/24 05:42:55;;;;;;;;;;;;;;;18.08;71.43;101438.44;5008515;28;1233;-71
2020/12/24 05:45:23;;;;;;;;;;;;;;;18.03;71.60;101441.25;5011251;28;1022;-72
2020/12/24 05:48:05;;;;;;;;;;;;;;;18.02;71.70;101445.66;5011976;28;1233;-71
2020/12/24 05:50:33;;;;;;;;;;;;;;;18.01;71.66;101441.31;5012278;28;1043;-71
2020/12/24 05:53:12;;;;;;;;;;;;;;;18.01;71.84;101440.47;5011722;28;1323;-71
2020/12/24 05:55:39;;;;;;;;;;;;;;;18.01;71.74;101436.06;4994212;28;1978;-71
2020/12/24 05:58:09;;;;;;;;;;;;;;;18.01;71.63;101436.06;5011668;28;1320;-72
2020/12/24 06:00:36;;;;;;;;;;;;;;;18.00;71.72;101447.50;4994573;28;1148;-72
2020/12/24 06:03:16;;;;;;;;;;;;;;;17.98;71.75;101448.50;5011790;28;1249;-73
2020/12/24 06:05:45;;;;;;;;;;;;;;;18.02;71.72;101456.19;5012309;28;1199;-73
2020/12/24 06:08:16;;;;;;;;;;;;;;;18.15;71.32;101453.06;5011865;28;1230;-73
2020/12/24 06:10:46;;;;;;;;;;;;;;;18.04;71.49;101453.50;4994840;28;1211;-72
2020/12/24 06:13:16;;;;;;;;;;;;;;;18.02;71.67;101456.19;4994156;28;1257;-72
2020/12/24 06:15:47;;;;;;;;;;;;;;;18.03;71.59;101457.91;4994257;28;1974;-71
2020/12/24 06:18:13;;;;;;;;;;;;;;;17.99;71.60;101469.50;5011403;28;1296;-75
2020/12/24 06:20:43;;;;;;;;;;;;;;;18.00;71.53;101468.59;5012066;28;1214;-73
2020/12/24 06:23:10;;;;;;;;;;;;;;;18.00;71.56;101476.50;4977899;28;1326;-73
2020/12/24 06:25:37;;;;;;;;;;;;;;;17.99;71.65;101461.59;4993588;28;1266;-73
2020/12/24 06:28:09;;;;;;;;;;;;;;;18.00;71.74;101468.59;5011742;28;1225;-72
2020/12/24 06:30:35;;;;;;;;;;;;;;;18.00;71.55;101460.69;5011561;28;1038;-72
2020/12/24 06:33:01;;;;;;;;;;;;;;;18.00;71.59;101458.06;4993567;28;1214;-72
2020/12/24 06:35:34;;;;;;;;;;;;;;;18.02;71.47;101452.72;5010948;28;1898;-72
2020/12/24 06:38:02;;;;;;;;;;;;;;;18.01;71.52;101459.78;4993069;28;1245;-72
2020/12/24 06:40:32;;;;;;;;;;;;;;;17.97;71.59;101459.97;4993643;28;1098;-73
2020/12/24 06:42:59;;;;;;;;;;;;;;;17.98;71.59;101446.72;4992871;28;1222;-73
2020/12/24 06:45:25;;;;;;;;;;;;;;;17.96;71.52;101456.47;5010681;28;1528;-75
2020/12/24 06:48:10;;;;;;;;;;;;;;;17.98;71.79;101454.63;4992657;28;1556;-75
2020/12/24 06:50:38;;;;;;;;;;;;;;;17.97;71.44;101457.31;4990040;28;979;-76
2020/12/24 06:53:23;;;;;;;;;;;;;;;17.96;71.58;101456.47;5010153;28;1272;-76
2020/12/24 06:56:13;;;;;;;;;;;;;;;17.96;71.43;101458.25;5009888;28;1906;-76
2020/12/24 06:58:40;;;;;;;;;;;;;;;17.94;71.65;101458.31;4984888;28;1208;-77
2020/12/24 07:01:06;;;;;;;;;;;;;;;17.94;71.51;101463.59;5010430;28;1226;-75
2020/12/24 07:03:35;;;;;;;;;;;;;;;17.96;71.41;101461.72;5010231;28;1019;-74
2020/12/24 07:06:01;;;;;;;;;;;;;;;17.95;71.79;101467.94;5010426;28;787;-74
2020/12/24 07:08:34;;;;;;;;;;;;;;;18.00;71.72;101468.59;4992518;28;1301;-72
2020/12/24 07:11:01;;;;;;;;;;;;;;;17.98;71.83;101462.53;5001335;28;1116;-76
2020/12/24 07:13:41;;;;;;;;;;;;;;;18.03;71.52;101470.25;5018654;28;1253;-75
2020/12/24 07:16:08;;;;;;;;;;;;;;;18.12;71.32;101466.38;5016762;28;1906;-76
2020/12/24 07:18:36;;;;;;;;;;;;;;;18.12;71.53;101469.03;5000521;28;1222;-76
2020/12/24 07:21:03;;;;;;;;;;;;;;;18.10;71.42;101470.84;5000136;28;1337;-76
2020/12/24 07:23:30;;;;;;;;;;;;;;;18.07;71.60;101469.19;5018495;28;1202;-76
2020/12/24 07:26:00;;;;;;;;;;;;;;;18.12;71.39;101466.38;5019535;28;1237;-76
2020/12/24 07:28:30;;;;;;;;;;;;;;;18.08;71.27;101459.50;5016255;28;1363;-76
2020/12/24 07:30:58;;;;;;;;;;;;;;;18.17;71.68;101469.66;5018153;28;1229;-78
2020/12/24 07:33:24;;;;;;;;;;;;;;;18.18;71.38;101481.94;4988789;28;1323;-78
2020/12/24 07:35:52;;;;;;;;;;;;;;;18.09;71.56;101477.88;5002193;28;1906;-79
2020/12/24 07:38:26;;;;;;;;;;;;;;;18.13;71.56;101481.25;5020681;28;1304;-81
2020/12/24 07:40:52;;;;;;;;;;;;;;;18.14;71.46;101481.22;5001852;28;1377;-80
2020/12/24 07:43:19;;;;;;;;;;;;;;;18.15;71.33;101477.63;4999787;28;1324;-77
2020/12/24 07:45:45;;;;;;;;;;;;;;;18.13;71.40;101486.53;5001041;28;1281;-78
2020/12/24 07:48:11;;;;;;;;;;;;;;;18.05;71.51;101486.00;5020235;28;1213;-79
2020/12/24 07:50:38;;;;;;;;;;;;;;;18.07;71.51;101484.16;5017050;28;1281;-77
2020/12/24 07:53:22;;;;;;;;;;;;;;;18.10;71.48;101498.06;4999652;28;1316;-77
2020/12/24 07:55:49;;;;;;;;;;;;;;;18.11;71.34;101504.22;4999353;28;1906;-78
2020/12/24 07:58:16;;;;;;;;;;;;;;;18.11;71.33;101507.72;4999948;28;1327;-78
2020/12/24 08:00:44;;;;;;;;;;;;;;;18.07;71.78;101513.16;5018435;28;1301;-79
2020/12/24 08:03:12;;;;;;;;;;;;;;;18.08;71.38;101512.25;5016796;28;1439;-77
2020/12/24 08:05:39;;;;;;;;;;;;;;;18.09;71.89;101527.97;5017679;28;1166;-73
2020/12/24 08:08:05;;;;;;;;;;;;;;;18.09;71.52;101535.06;5017697;28;1407;-77
2020/12/24 08:10:41;;;;;;;;;;;;;;;18.08;71.57;101536.84;5016426;28;1272;-75
2020/12/24 08:13:08;;;;;;;;;;;;;;;18.04;71.27;101532.59;5015972;28;1217;-75
2020/12/24 08:15:38;;;;;;;;;;;;;;;18.00;71.59;101534.50;4999962;28;1914;-72
2020/12/24 08:18:05;;;;;;;;;;;;;;;18.06;71.31;101538.66;5016585;28;1374;-71
2020/12/24 08:20:57;;;;;;;;;;;;;;;18.07;71.76;101542.16;4998865;28;1637;-74
2020/12/24 08:23:39;;;;;;;;;;;;;;;18.09;71.46;101548.25;5016359;28;1306;-74
2020/12/24 08:26:07;;;;;;;;;;;;;;;18.09;71.37;101548.25;5014791;28;1381;-74
2020/12/24 08:28:33;;;;;;;;;;;;;;;18.07;71.96;101550.06;5016092;28;1369;-73
2020/12/24 08:31:00;;;;;;;;;;;;;;;18.06;71.60;101549.19;5017561;28;1467;-72
2020/12/24 08:33:30;;;;;;;;;;;;;;;18.04;71.51;101558.97;4998695;28;1353;-73
2020/12/24 08:36:10;;;;;;;;;;;;;;;18.03;71.22;101558.09;5015266;28;1906;-75
2020/12/24 08:38:40;;;;;;;;;;;;;;;18.06;71.48;101561.53;5015138;28;1313;-74
2020/12/24 08:41:06;;;;;;;;;;;;;;;18.03;71.52;101566.00;5016523;28;1296;-74
2020/12/24 08:43:33;;;;;;;;;;;;;;;18.10;71.58;101564.00;4980910;28;1354;-73
2020/12/24 08:45:59;;;;;;;;;;;;;;;18.14;71.27;101567.34;5017561;28;1308;-69
2020/12/24 08:48:33;;;;;;;;;;;;;;;18.15;70.76;101566.44;4998619;28;1287;-71
2020/12/24 08:51:00;;;;;;;;;;;;;;;18.07;70.56;101563.25;5015380;28;1215;-71
2020/12/24 08:53:28;;;;;;;;;;;;;;;18.12;71.13;101562.13;5018396;28;1363;-73
2020/12/24 08:55:55;;;;;;;;;;;;;;;18.22;70.83;101565.25;4998394;28;1907;-71
2020/12/24 08:58:21;;;;;;;;;;;;;;;18.17;70.46;101564.59;5015787;28;1350;-70
2020/12/24 09:00:47;;;;;;;;;;;;;;;18.16;70.17;101560.22;5017818;28;1234;-72
2020/12/24 09:03:23;;;;;;;;;;;;;;;18.17;70.03;101565.47;5015936;28;1337;-71
2020/12/24 09:05:50;;;;;;;;;;;;;;;18.15;70.61;101569.09;4994172;28;1306;-68
2020/12/24 09:08:23;;;;;;;;;;;;;;;18.23;70.91;101567.84;5014442;28;1676;-71
2020/12/24 09:10:49;;;;;;;;;;;;;;;18.19;70.57;101578.56;4994069;28;1297;-74
2020/12/24 09:13:18;;;;;;;;;;;;;;;18.15;71.26;101569.09;5019729;28;1281;-72
2020/12/24 09:15:48;;;;;;;;;;;;;;;18.15;71.44;101575.19;4998260;28;1910;-72
2020/12/24 09:18:15;;;;;;;;;;;;;;;18.18;71.16;101576.88;4999003;28;1292;-70
2020/12/24 09:20:42;;;;;;;;;;;;;;;18.33;71.50;101578.88;5019478;28;1268;-72
2020/12/24 09:23:09;;;;;;;;;;;;;;;18.41;71.31;101582.03;5020543;28;1311;-74
2020/12/24 09:25:41;;;;;;;;;;;;;;;18.43;71.26;101572.25;5000301;28;1242;-75
2020/12/24 09:28:18;;;;;;;;;;;;;;;18.43;71.42;101565.19;4986311;28;1621;-74
2020/12/24 09:30:44;;;;;;;;;;;;;;;18.44;70.98;101568.69;5020319;28;1214;-74
2020/12/24 09:33:10;;;;;;;;;;;;;;;18.44;70.92;101569.56;4997721;28;1322;-76
2020/12/24 09:35:36;;;;;;;;;;;;;;;18.45;70.81;101570.44;5019807;28;1974;-75
2020/12/24 09:38:03;;;;;;;;;;;;;;;18.47;70.66;101579.13;5016497;28;1668;-73
2020/12/24 09:40:29;;;;;;;;;;;;;;;18.54;70.63;101580.63;5016200;28;1273;-71
2020/12/24 09:42:55;;;;;;;;;;;;;;;18.51;70.78;101581.59;4998791;28;1256;-74
2020/12/24 09:45:23;;;;;;;;;;;;;;;18.56;70.81;101581.41;5019408;28;1281;-71
2020/12/24 09:47:50;;;;;;;;;;;;;;;18.49;71.04;101572.88;5017900;28;1264;-75
2020/12/24 09:50:16;;;;;;;;;;;;;;;18.49;71.40;101593.13;5017998;28;1229;-75
2020/12/24 09:52:42;;;;;;;;;;;;;;;18.60;71.21;101588.28;5014319;28;1728;-77
2020/12/24 09:55:11;;;;;;;;;;;;;;;18.55;70.95;101588.47;5016525;28;1910;-78
2020/12/24 09:57:38;;;;;;;;;;;;;;;18.54;71.40;101585.91;4999839;28;1258;-72
2020/12/24 10:00:19;;;;;;;;;;;;;;;18.47;71.33;101592.31;5018230;28;1415;-74
2020/12/24 10:02:45;;;;;;;;;;;;;;;18.45;71.28;101591.53;5019448;28;1374;-73
2020/12/24 10:05:18;;;;;;;;;;;;;;;18.39;71.07;101583.88;5017393;28;1142;-74
2020/12/24 10:07:50;;;;;;;;;;;;;;;18.47;70.93;101581.75;5018130;28;1296;-72
2020/12/24 10:10:16;;;;;;;;;;;;;;;18.52;71.07;101582.44;5018275;28;1194;-77
2020/12/24 10:12:42;;;;;;;;;;;;;;;18.40;70.86;101588.22;4983443;28;1374;-77
2020/12/24 10:15:12;;;;;;;;;;;;;;;18.41;70.71;101588.16;5000674;28;1957;-74
2020/12/24 10:17:38;;;;;;;;;;;;;;;18.44;70.64;101581.91;5001657;28;1486;-72
2020/12/24 10:20:04;;;;;;;;;;;;;;;18.42;71.22;101584.59;5017386;28;1253;-71
2020/12/24 10:22:31;;;;;;;;;;;;;;;18.41;70.61;101579.38;5018407;28;1363;-71
2020/12/24 10:24:57;;;;;;;;;;;;;;;18.59;72.27;101588.31;5016382;28;1218;-69
2020/12/24 10:27:23;;;;;;;;;;;;;;;18.57;72.00;101585.78;5017114;28;1323;-76
2020/12/24 10:29:49;;;;;;;;;;;;;;;18.65;71.83;101585.41;5016448;28;1142;-72
2020/12/24 10:32:16;;;;;;;;;;;;;;;18.58;71.30;101582.19;4997577;28;1380;-73
2020/12/24 10:34:42;;;;;;;;;;;;;;;18.54;70.13;101577.97;4995284;28;1746;-72
2020/12/24 10:37:11;;;;;;;;;;;;;;;18.43;71.34;101575.75;5017147;28;1994;-76
2020/12/24 10:39:40;;;;;;;;;;;;;;;18.30;70.95;101573.72;5018537;28;1336;-77
2020/12/24 10:42:07;;;;;;;;;;;;;;;18.24;71.13;101579.25;5016054;28;1266;-76
2020/12/24 10:44:33;;;;;;;;;;;;;;;18.22;71.15;101567.88;4981765;28;1246;-78
2020/12/24 10:46:59;;;;;;;;;;;;;;;18.21;71.31;101569.66;4998855;28;1244;-77
2020/12/24 10:49:26;;;;;;;;;;;;;;;18.18;70.89;101571.59;4996141;28;1273;-77
2020/12/24 10:51:52;;;;;;;;;;;;;;;18.17;70.60;101565.47;5016025;28;1350;-76
2020/12/24 10:54:19;;;;;;;;;;;;;;;18.15;70.65;101566.44;5016131;28;1320;-77
2020/12/24 10:56:46;;;;;;;;;;;;;;;18.14;70.56;101564.72;5016877;28;1906;-77
2020/12/24 10:59:12;;;;;;;;;;;;;;;18.13;70.76;101563.00;5019933;28;1262;-77
2020/12/24 11:01:43;;;;;;;;;;;;;;;18.13;70.55;101565.63;4985865;28;1292;-77
2020/12/24 11:04:09;;;;;;;;;;;;;;;18.11;70.91;101567.47;5000890;28;1373;-74
2020/12/24 11:06:36;;;;;;;;;;;;;;;18.10;70.69;101568.41;4984790;28;1455;-73
2020/12/24 11:09:02;;;;;;;;;;;;;;;18.09;70.81;101566.69;5019299;28;1234;-75
2020/12/24 11:11:33;;;;;;;;;;;;;;;18.08;70.49;101570.25;4999588;28;1331;-75
2020/12/24 11:13:59;;;;;;;;;;;;;;;18.05;70.79;101565.09;5018532;28;1118;-74
2020/12/24 11:16:26;;;;;;;;;;;;;;;18.05;70.58;101571.25;5001611;28;1907;-75
2020/12/24 11:18:52;;;;;;;;;;;;;;;18.05;70.72;101570.38;5017404;28;1289;-75
2020/12/24 11:21:19;;;;;;;;;;;;;;;18.04;70.69;101558.97;5018252;28;1358;-74
2020/12/24 11:23:46;;;;;;;;;;;;;;;18.03;70.84;101560.75;5019619;28;1310;-75
2020/12/24 11:26:23;;;;;;;;;;;;;;;18.03;70.81;101559.88;4983415;28;1366;-75
2020/12/24 11:28:50;;;;;;;;;;;;;;;17.99;70.73;101551.22;5017415;28;1237;-75
2020/12/24 11:31:26;;;;;;;;;;;;;;;18.00;70.52;101541.56;5018699;28;1241;-75
2020/12/24 11:33:52;;;;;;;;;;;;;;;18.01;71.03;101541.50;5014972;28;1234;-75
2020/12/24 11:36:18;;;;;;;;;;;;;;;17.99;70.82;101535.41;5000009;28;1911;-75
2020/12/24 11:38:45;;;;;;;;;;;;;;;17.99;71.14;101526.69;4981867;28;1444;-75
2020/12/24 11:41:22;;;;;;;;;;;;;;;17.96;70.79;101517.09;4996993;28;1340;-74
2020/12/24 11:43:50;;;;;;;;;;;;;;;17.96;70.67;101516.25;4999218;28;1233;-74
2020/12/24 11:46:16;;;;;;;;;;;;;;;17.96;70.44;101514.44;4996807;28;1268;-75
2020/12/24 11:48:44;;;;;;;;;;;;;;;17.96;70.49;101514.44;4996149;28;1233;-74
2020/12/24 11:51:11;;;;;;;;;;;;;;;17.95;70.86;101504.84;4998985;28;1296;-75
2020/12/24 11:53:37;;;;;;;;;;;;;;;17.93;70.65;101503.22;4996081;28;1203;-75
2020/12/24 11:56:05;;;;;;;;;;;;;;;17.94;70.47;101507.53;4995818;28;1914;-74
2020/12/24 11:58:31;;;;;;;;;;;;;;;17.93;70.72;101498.75;4981093;28;1367;-74
2020/12/24 12:00:59;;;;;;;;;;;;;;;17.93;70.39;101493.50;4993144;28;1124;-74
2020/12/24 12:03:26;;;;;;;;;;;;;;;17.94;70.37;101494.34;4980129;28;1383;-74
2020/12/24 12:05:52;;;;;;;;;;;;;;;17.91;70.43;101491.84;4997323;28;1293;-73
2020/12/24 12:08:18;;;;;;;;;;;;;;;17.92;70.27;101485.66;4991826;28;1343;-75
2020/12/24 12:10:45;;;;;;;;;;;;;;;17.91;70.23;101478.66;4996468;28;1242;-73
2020/12/24 12:13:11;;;;;;;;;;;;;;;17.90;70.36;101487.53;4997003;28;1394;-74
2020/12/24 12:15:37;;;;;;;;;;;;;;;17.90;70.48;101480.44;4997703;28;1914;-74
2020/12/24 12:18:06;;;;;;;;;;;;;;;17.89;70.17;101475.25;4995994;28;1292;-73
2020/12/24 12:20:35;;;;;;;;;;;;;;;17.88;70.32;101463.84;4995410;28;1356;-76
2020/12/24 12:23:01;;;;;;;;;;;;;;;17.87;70.65;101456.03;4994709;28;1252;-75
2020/12/24 12:25:28;;;;;;;;;;;;;;;17.86;70.54;101444.63;4996127;28;1321;-75
2020/12/24 12:27:54;;;;;;;;;;;;;;;17.87;70.24;101440.22;4996951;28;1839;-74
2020/12/24 12:30:20;;;;;;;;;;;;;;;17.87;70.08;101430.50;4997001;28;1289;-74
2020/12/24 12:32:46;;;;;;;;;;;;;;;17.87;70.07;101434.94;4997823;28;1372;-74
2020/12/24 12:35:14;;;;;;;;;;;;;;;17.85;69.99;101427.06;4999368;28;1914;-76
2020/12/24 12:37:40;;;;;;;;;;;;;;;17.86;69.97;101428.81;4996903;28;1320;-74
2020/12/24 12:40:07;;;;;;;;;;;;;;;17.87;70.31;101430.50;5016622;28;1213;-74
2020/12/24 12:42:33;;;;;;;;;;;;;;;17.84;69.97;101430.63;5018034;28;1281;-75
2020/12/24 12:44:59;;;;;;;;;;;;;;;17.85;69.93;101426.22;5013812;28;1474;-76
2020/12/24 12:47:26;;;;;;;;;;;;;;;17.84;69.94;101425.34;5017264;28;1241;-77
2020/12/24 12:49:52;;;;;;;;;;;;;;;17.84;69.81;101430.63;5017925;28;1313;-76
2020/12/24 12:52:19;;;;;;;;;;;;;;;17.82;69.68;101424.56;4997261;28;1635;-76